Time;durP1;ratioP1;P1;durP2;ratioP2;P2;SDS_P1;SDS_P2;PMS_P1;PMS_P2;Temp;Humidity;BMP_temperature;BMP_pressure;BME280_temperature;BME280_humidity;BME280_pressure;Samples;Min_cycle;Max_cycle;Signal;HPM_P1;HPM_P2
2022/05/21 00:00:37;;;;;;;15.18;8.05;;;;;;;15.82;100.00;98176.34;4387782;32;20035;-85
2022/05/21 00:03:05;;;;;;;13.10;8.52;;;;;;;16.05;100.00;98184.53;4383872;32;20403;-80
2022/05/21 00:05:33;;;;;;;14.45;8.13;;;;;;;16.07;100.00;98155.19;4386711;32;20056;-81
2022/05/21 00:08:00;;;;;;;16.17;7.57;;;;;;;15.95;100.00;98126.66;4384839;32;20055;-81
2022/05/21 00:10:29;;;;;;;18.87;8.05;;;;;;;15.75;100.00;98116.25;4386874;32;20108;-80
2022/05/21 00:12:57;;;;;;;15.18;8.32;;;;;;;15.70;100.00;98091.91;4385085;32;20085;-80
2022/05/21 00:15:26;;;;;;;15.95;8.25;;;;;;;15.71;100.00;98088.91;4387436;32;20051;-80
2022/05/21 00:17:53;;;;;;;19.50;8.93;;;;;;;15.66;100.00;98061.88;4387226;32;20403;-81
2022/05/21 00:23:15;;;;;;;19.95;9.32;;;;;;;15.39;100.00;98014.75;4387763;32;20047;-80
2022/05/21 00:25:44;;;;;;;9.63;6.82;;;;;;;15.77;100.00;98051.63;4386756;32;20035;-81
2022/05/21 00:28:11;;;;;;;11.38;8.77;;;;;;;15.64;100.00;98028.03;4385308;32;20042;-80
2022/05/21 00:30:37;;;;;;;16.90;8.23;;;;;;;15.52;100.00;98004.16;4384216;32;20392;-80
2022/05/21 00:33:04;;;;;;;13.10;8.27;;;;;;;15.84;100.00;98054.69;4386522;32;20043;-79
2022/05/21 00:35:31;;;;;;;13.48;9.65;;;;;;;15.87;100.00;98081.22;4386255;32;20039;-81
2022/05/21 00:37:57;;;;;;;11.90;7.82;;;;;;;15.64;100.00;98063.31;4384367;32;20023;-80
2022/05/21 00:40:24;;;;;;;15.77;7.47;;;;;;;15.96;100.00;98117.41;4386333;32;20051;-80
2022/05/21 00:42:51;;;;;;;14.48;7.53;;;;;;;15.96;100.00;98105.75;4386502;32;20435;-80
2022/05/21 00:45:18;;;;;;;15.95;7.57;;;;;;;15.69;100.00;98068.62;4385444;32;20158;-80
2022/05/21 00:47:45;;;;;;;13.75;7.53;;;;;;;15.71;100.00;98055.53;4386853;32;20389;-79
2022/05/21 00:50:16;;;;;;;11.25;8.00;;;;;;;15.68;100.00;98016.25;4385501;32;20042;-80
2022/05/21 00:52:43;;;;;;;18.55;7.75;;;;;;;15.82;100.00;98001.84;4386130;32;20039;-80
2022/05/21 00:55:15;;;;;;;12.30;8.52;;;;;;;15.84;100.00;98022.13;4386451;32;20509;-80
2022/05/21 00:57:45;;;;;;;12.15;8.73;;;;;;;16.15;100.00;98045.81;4387078;32;20357;-80
2022/05/21 01:00:22;;;;;;;9.32;8.15;;;;;;;16.12;100.00;98044.53;4383941;32;20054;-81
2022/05/21 01:02:57;;;;;;;13.57;9.40;;;;;;;16.20;100.00;98026.69;4386818;32;20039;-81
2022/05/21 01:05:26;;;;;;;18.73;9.20;;;;;;;16.31;100.00;98016.34;4387041;32;20059;-80
2022/05/21 01:07:56;;;;;;;15.18;8.48;;;;;;;16.28;100.00;98008.84;4386363;32;20057;-80
2022/05/21 01:10:27;;;;;;;11.38;8.75;;;;;;;16.22;100.00;97983.72;4386584;32;20055;-81
2022/05/21 01:12:57;;;;;;;14.95;9.32;;;;;;;16.15;100.00;97962.44;4386696;32;20116;-80
2022/05/21 01:15:30;;;;;;;14.35;8.85;;;;;;;16.36;100.00;97983.63;4386616;32;20043;-79
2022/05/21 01:17:57;;;;;;;15.77;9.27;;;;;;;16.48;100.00;97980.31;4384323;32;20458;-79
2022/05/21 01:20:35;;;;;;;10.05;8.10;;;;;;;16.36;100.00;97982.84;4384427;32;20786;-79
2022/05/21 01:23:09;;;;;;;11.52;8.27;;;;;;;16.47;100.00;97973.28;4385445;32;20412;-78
2022/05/21 01:25:38;;;;;;;15.18;7.50;;;;;;;16.32;100.00;97982.63;4386316;32;20043;-76
2022/05/21 01:28:08;;;;;;;13.65;7.25;;;;;;;16.12;100.00;97945.97;4385890;32;20031;-78
2022/05/21 01:30:40;;;;;;;13.02;7.80;;;;;;;16.27;100.00;97980.84;4386791;32;20368;-77
2022/05/21 01:33:09;;;;;;;13.15;8.23;;;;;;;16.34;100.00;97964.91;4390484;32;20053;-77
2022/05/21 01:35:36;;;;;;;14.00;8.77;;;;;;;16.12;100.00;97935.13;4384014;32;20031;-78
2022/05/21 01:38:03;;;;;;;16.67;9.90;;;;;;;16.23;100.00;97960.09;4385361;32;20319;-79
2022/05/21 01:40:30;;;;;;;11.30;9.77;;;;;;;16.04;100.00;97916.88;4386547;32;20043;-80
2022/05/21 01:45:43;;;;;;;13.90;8.77;;;;;;;16.07;100.00;97933.34;4385294;32;20044;-79
2022/05/21 01:48:09;;;;;;;32.55;8.95;;;;;;;16.33;100.00;98055.66;4385131;32;20073;-80
2022/05/21 01:50:38;;;;;;;27.98;5.57;;;;;;;15.83;100.00;98139.97;4386757;32;20162;-80
2022/05/21 01:53:05;;;;;;;10.40;4.45;;;;;;;15.98;100.00;98088.03;4385585;32;20044;-79
2022/05/21 01:55:32;;;;;;;9.40;4.53;;;;;;;15.65;100.00;97992.44;4383341;32;20035;-77
2022/05/21 01:57:58;;;;;;;6.00;4.47;;;;;;;15.97;100.00;98015.84;4386090;32;20109;-77
2022/05/21 02:00:25;;;;;;;18.52;3.97;;;;;;;15.88;100.00;97984.34;4386332;32;20043;-78
2022/05/21 02:02:52;;;;;;;8.00;4.00;;;;;;;16.11;100.00;97987.81;4385272;32;20031;-78
2022/05/21 02:05:18;;;;;;;10.60;5.20;;;;;;;16.23;100.00;97977.19;4382919;32;20388;-77
2022/05/21 02:07:45;;;;;;;7.78;4.47;;;;;;;15.98;100.00;97940.63;4385184;32;20061;-78
2022/05/21 02:10:11;;;;;;;9.15;4.47;;;;;;;16.01;100.00;97947.38;4386242;32;20479;-78
2022/05/21 02:12:39;;;;;;;6.87;4.87;;;;;;;16.18;100.00;97985.47;4388864;32;20085;-78
2022/05/21 02:15:06;;;;;;;10.57;4.68;;;;;;;16.06;100.00;97968.94;4388100;32;20445;-78
2022/05/21 02:17:33;;;;;;;10.82;5.12;;;;;;;16.27;100.00;97953.69;4387652;32;20031;-79
2022/05/21 02:20:00;;;;;;;7.45;4.50;;;;;;;16.08;100.00;97942.28;4388030;32;20034;-79
2022/05/21 02:22:27;;;;;;;9.63;5.80;;;;;;;15.81;100.00;97935.91;4388485;32;20061;-79
2022/05/21 02:24:53;;;;;;;8.05;4.82;;;;;;;15.92;100.00;97948.13;4388943;32;20061;-78
2022/05/21 02:27:20;;;;;;;6.50;4.45;;;;;;;16.01;100.00;97963.66;4386862;32;20032;-77
2022/05/21 02:29:46;;;;;;;6.47;4.50;;;;;;;16.25;100.00;97983.09;4389106;32;20120;-79
2022/05/21 02:32:14;;;;;;;5.57;4.53;;;;;;;16.07;100.00;97941.47;4387536;32;20031;-79
2022/05/21 02:34:42;;;;;;;7.82;4.30;;;;;;;16.30;100.00;97980.22;4388635;32;20031;-79
2022/05/21 02:39:54;;;;;;;9.63;5.50;;;;;;;16.45;100.00;97970.06;4388972;32;20042;-78
2022/05/21 02:45:07;;;;;;;8.98;3.35;;;;;;;16.27;100.00;97953.69;4388215;32;20051;-78
2022/05/21 02:47:34;;;;;;;6.18;4.65;;;;;;;16.39;100.00;97988.44;4387332;32;20043;-79
2022/05/21 02:50:01;;;;;;;9.07;4.37;;;;;;;16.37;100.00;97968.13;4388701;32;20056;-79
2022/05/21 02:52:28;;;;;;;6.55;4.12;;;;;;;16.15;100.00;97946.16;4386549;32;20031;-79
2022/05/21 02:54:56;;;;;;;4.18;3.30;;;;;;;16.12;100.00;97951.41;4388857;32;20058;-78
2022/05/21 02:57:23;;;;;;;4.60;4.07;;;;;;;16.38;100.00;97977.88;4388522;32;20081;-78
2022/05/21 02:59:50;;;;;;;3.67;3.15;;;;;;;16.49;100.00;98003.66;4388614;32;20068;-76
2022/05/21 03:02:17;;;;;;;4.60;3.70;;;;;;;16.20;100.00;97980.50;4385321;32;20446;-76
2022/05/21 03:04:44;;;;;;;8.10;4.15;;;;;;;16.53;100.00;97994.56;4388162;32;20182;-77
2022/05/21 03:07:10;;;;;;;7.80;3.00;;;;;;;16.26;100.00;98001.00;4389475;32;20097;-77
2022/05/21 03:12:22;;;;;;;7.75;4.05;;;;;;;16.29;100.00;97994.94;4371320;32;20085;-77
2022/05/21 03:14:48;;;;;;;6.35;2.95;;;;;;;16.36;100.00;97982.84;4373179;32;20044;-77
2022/05/21 03:17:15;;;;;;;4.37;3.00;;;;;;;16.29;100.00;97988.69;4385218;32;20043;-76
2022/05/21 03:19:41;;;;;;;6.72;2.92;;;;;;;16.36;100.00;97986.34;4386477;32;20115;-77
2022/05/21 03:22:08;;;;;;;4.82;3.22;;;;;;;16.49;100.00;98019.94;4384498;32;20360;-77
2022/05/21 03:24:35;;;;;;;5.55;2.62;;;;;;;16.40;100.00;98011.78;4388203;32;20084;-77
2022/05/21 03:27:01;;;;;;;4.53;3.25;;;;;;;16.33;100.00;98006.78;4388111;32;20116;-77
2022/05/21 03:29:28;;;;;;;2.53;2.33;;;;;;;16.62;100.00;98024.47;4387805;32;20451;-77
2022/05/21 03:31:54;;;;;;;3.42;2.65;;;;;;;16.51;100.00;98013.09;4387123;32;20031;-77
2022/05/21 03:34:21;;;;;;;7.50;2.50;;;;;;;16.36;100.00;98031.72;4385798;32;20069;-78
2022/05/21 03:36:48;;;;;;;3.50;2.30;;;;;;;16.43;100.00;98021.19;4387983;32;20052;-78
2022/05/21 03:39:14;;;;;;;2.10;2.00;;;;;;;16.63;100.00;98019.84;4387042;32;20061;-78
2022/05/21 03:41:40;;;;;;;1.98;1.85;;;;;;;16.43;100.00;98032.06;4387473;32;20039;-78
2022/05/21 03:44:08;;;;;;;1.83;1.67;;;;;;;16.59;100.00;98027.81;4387205;32;20364;-76
2022/05/21 03:46:38;;;;;;;1.83;1.73;;;;;;;16.49;100.00;98019.94;4386451;32;20027;-78
2022/05/21 03:49:11;;;;;;;3.70;2.20;;;;;;;16.30;100.00;97995.72;4386103;32;20214;-79
2022/05/21 03:51:37;;;;;;;3.03;2.40;;;;;;;16.75;100.00;98038.28;4384724;32;20035;-79
2022/05/21 03:54:04;;;;;;;2.00;1.77;;;;;;;16.70;100.00;98052.81;4383751;32;20065;-79
2022/05/21 03:56:31;;;;;;;3.28;3.08;;;;;;;16.59;100.00;98062.34;4387795;32;20125;-80
2022/05/21 03:58:57;;;;;;;8.65;2.53;;;;;;;16.32;100.00;98009.78;4389040;32;20031;-79
2022/05/21 04:01:24;;;;;;;2.72;2.53;;;;;;;16.63;100.00;98080.44;4388607;32;20027;-80
2022/05/21 04:03:54;;;;;;;8.48;4.87;;;;;;;16.40;100.00;98059.84;4390097;32;20060;-79
2022/05/21 04:06:21;;;;;;;5.22;2.97;;;;;;;16.44;100.00;98063.56;4396142;32;20049;-81
2022/05/21 04:08:49;;;;;;;6.60;3.80;;;;;;;16.49;100.00;98052.56;4387573;32;20056;-79
2022/05/21 04:11:16;;;;;;;4.25;2.78;;;;;;;16.41;100.00;98034.31;4398206;32;20051;-82
2022/05/21 04:13:42;;;;;;;6.20;3.42;;;;;;;16.34;100.00;98035.53;4388343;32;20429;-78
2022/05/21 04:16:09;;;;;;;4.90;3.72;;;;;;;16.33;100.00;98061.09;4396055;32;20024;-81
2022/05/21 04:18:35;;;;;;;3.72;3.22;;;;;;;16.34;100.00;98011.09;4393792;32;20054;-79
2022/05/21 04:21:02;;;;;;;7.18;4.32;;;;;;;16.01;100.00;98026.09;4390273;32;20403;-78
2022/05/21 04:23:28;;;;;;;6.25;5.15;;;;;;;16.49;100.00;98058.78;4387235;32;20053;-80
2022/05/21 04:25:55;;;;;;;5.25;4.78;;;;;;;16.25;100.00;98037.41;4389160;32;20090;-77
2022/05/21 04:28:21;;;;;;;6.80;5.55;;;;;;;16.47;100.00;98033.06;4382448;32;20043;-78
2022/05/21 04:30:47;;;;;;;10.45;6.28;;;;;;;16.31;100.00;98014.44;4389354;32;20072;-78
2022/05/21 04:33:15;;;;;;;11.10;7.20;;;;;;;16.51;100.00;98061.19;4392468;32;20064;-78
2022/05/21 04:38:26;;;;;;;11.80;7.80;;;;;;;16.63;100.00;98053.25;4391405;32;20054;-78
2022/05/21 04:40:53;;;;;;;7.95;6.90;;;;;;;16.80;100.00;98047.09;4392623;32;20109;-78
2022/05/21 04:43:19;;;;;;;11.48;8.88;;;;;;;16.59;100.00;98035.97;4388458;32;20053;-81
2022/05/21 04:45:46;;;;;;;14.52;8.07;;;;;;;16.81;100.00;98080.50;4385438;32;20043;-78
2022/05/21 04:48:12;;;;;;;11.52;7.35;;;;;;;16.85;100.00;98076.06;4391646;32;20035;-79
2022/05/21 04:50:39;;;;;;;9.50;6.87;;;;;;;16.90;100.00;98062.34;4386555;32;20072;-79
2022/05/21 04:53:06;;;;;;;7.60;6.78;;;;;;;17.03;100.00;98060.62;4386866;32;20043;-78
2022/05/21 04:55:33;;;;;;;9.10;6.97;;;;;;;17.02;100.00;98059.84;4384388;32;20069;-78
2022/05/21 04:57:59;;;;;;;8.38;6.85;;;;;;;17.36;100.00;98069.19;4385558;32;20108;-78
2022/05/21 05:00:27;;;;;;;6.62;4.47;;;;;;;17.24;100.00;98060.81;4387416;32;20043;-79
2022/05/21 05:02:53;;;;;;;6.07;5.47;;;;;;;17.26;100.00;98085.78;4386408;32;20080;-79
2022/05/21 05:05:20;;;;;;;7.65;5.53;;;;;;;17.36;100.00;98074.63;4382873;32;20042;-79
2022/05/21 05:07:46;;;;;;;6.07;4.75;;;;;;;17.41;100.00;98109.84;4382254;32;20054;-78
2022/05/21 05:10:13;;;;;;;6.07;3.70;;;;;;;17.27;100.00;98054.75;4385613;32;20051;-78
2022/05/21 05:12:39;;;;;;;3.72;3.42;;;;;;;17.23;100.00;98091.84;4392928;32;20102;-79
2022/05/21 05:15:06;;;;;;;3.28;2.70;;;;;;;17.36;100.00;98082.78;4394927;32;20392;-79
2022/05/21 05:17:33;;;;;;;9.70;2.80;;;;;;;16.98;100.00;98096.91;4382376;32;20043;-80
2022/05/21 05:20:00;;;;;;;2.92;2.78;;;;;;;16.80;100.00;98100.66;4387038;32;20068;-79
2022/05/21 05:22:27;;;;;;;3.20;2.90;;;;;;;16.84;100.00;98101.63;4391248;32;20990;-79
2022/05/21 05:24:54;;;;;;;5.07;2.83;;;;;;;16.95;100.00;98097.53;4386469;32;20436;-79
2022/05/21 05:27:21;;;;;;;4.35;3.00;;;;;;;16.73;100.00;98084.78;4393038;32;20069;-78
2022/05/21 05:29:48;;;;;;;2.75;2.55;;;;;;;16.75;100.00;98138.84;4382839;32;20051;-77
2022/05/21 05:32:21;;;;;;;3.20;2.42;;;;;;;16.76;100.00;98133.09;4388266;32;20046;-78
2022/05/21 05:34:47;;;;;;;2.28;2.17;;;;;;;16.60;100.00;98151.72;4387623;32;20391;-78
2022/05/21 05:37:14;;;;;;;2.33;2.12;;;;;;;16.39;100.00;98120.75;4387433;32;20462;-78
2022/05/21 05:39:40;;;;;;;2.53;2.42;;;;;;;16.46;100.00;98112.94;4385975;32;20099;-78
2022/05/21 05:42:07;;;;;;;1.98;1.87;;;;;;;16.65;100.00;98127.13;4388887;32;20310;-77
2022/05/21 05:44:33;;;;;;;1.92;1.83;;;;;;;16.37;100.00;98202.56;4387652;32;20181;-79
2022/05/21 05:47:00;;;;;;;5.45;1.90;;;;;;;16.27;100.00;98165.53;4386776;32;20059;-80
2022/05/21 05:49:27;;;;;;;2.37;1.60;;;;;;;16.28;100.00;98140.00;4388470;32;20310;-77
2022/05/21 05:51:53;;;;;;;3.70;2.62;;;;;;;16.34;100.00;98146.12;4389294;32;20084;-77
2022/05/21 05:54:20;;;;;;;1.10;1.10;;;;;;;16.10;100.00;98176.31;4397594;32;20070;-74
2022/05/21 05:56:46;;;;;;;1.90;1.58;;;;;;;16.11;100.00;98194.19;4393278;32;20049;-73
2022/05/21 06:04:43;;;;;;;1.60;1.60;;;;;;;16.00;100.00;98185.44;4372554;32;20061;-73
2022/05/21 06:07:13;;;;;;;1.23;1.20;;;;;;;16.23;100.00;98180.06;4403572;32;20038;-73
2022/05/21 06:09:41;;;;;;;4.32;1.40;;;;;;;16.16;100.00;98207.63;4402084;32;20069;-72
2022/05/21 06:12:08;;;;;;;2.67;1.08;;;;;;;15.84;100.00;98179.56;4389820;32;20047;-72
2022/05/21 06:14:36;;;;;;;1.80;1.02;;;;;;;15.90;100.00;98197.34;4389243;32;20034;-72
2022/05/21 06:17:02;;;;;;;2.53;1.20;;;;;;;15.72;100.00;98268.84;4389154;32;20071;-73
2022/05/21 06:19:29;;;;;;;0.90;0.90;;;;;;;15.83;100.00;98253.97;4386076;32;20441;-73
2022/05/21 06:21:57;;;;;;;13.90;1.17;;;;;;;15.77;100.00;98225.31;4388157;32;20465;-73
2022/05/21 06:24:23;;;;;;;1.27;1.25;;;;;;;15.83;100.00;98270.25;4388398;32;20038;-72
2022/05/21 06:26:50;;;;;;;4.87;1.20;;;;;;;15.59;100.00;98254.94;4389021;32;20420;-72
2022/05/21 06:29:16;;;;;;;6.28;1.17;;;;;;;15.85;100.00;98240.87;4387851;32;20468;-73
2022/05/21 06:31:43;;;;;;;0.80;0.80;;;;;;;15.67;100.00;98231.75;4388023;32;20093;-72
2022/05/21 06:34:10;;;;;;;1.48;0.80;;;;;;;15.61;100.00;98279.88;4388682;32;20051;-72
2022/05/21 06:36:36;;;;;;;2.87;0.90;;;;;;;15.54;100.00;98287.63;4388381;32;20039;-73
2022/05/21 06:39:04;;;;;;;0.93;0.93;;;;;;;15.89;100.00;98244.62;4388411;32;20100;-73
2022/05/21 06:41:31;;;;;;;0.98;0.85;;;;;;;15.52;100.00;98200.28;4388132;32;20043;-73
2022/05/21 06:43:58;;;;;;;0.90;0.90;;;;;;;15.61;100.00;98323.28;4388697;32;20404;-73
2022/05/21 06:46:24;;;;;;;0.80;0.80;;;;;;;15.72;100.00;98257.97;4388657;32;20352;-73
2022/05/21 06:48:51;;;;;;;8.18;1.25;;;;;;;15.69;100.00;98261.28;4388123;32;20052;-73
2022/05/21 06:51:17;;;;;;;1.58;0.80;;;;;;;15.53;100.00;98211.94;4401589;32;20063;-74
2022/05/21 06:53:43;;;;;;;12.15;0.70;;;;;;;15.70;100.00;98211.31;4395019;32;20811;-73
2022/05/21 06:56:13;;;;;;;1.30;1.08;;;;;;;15.77;100.00;98296.69;4388495;32;20060;-72
2022/05/21 06:58:39;;;;;;;0.90;0.90;;;;;;;15.67;100.00;98282.47;4387449;32;20031;-72
2022/05/21 07:01:06;;;;;;;1.62;1.30;;;;;;;15.46;100.00;98293.75;4384943;32;20090;-72
2022/05/21 07:03:33;;;;;;;4.47;1.40;;;;;;;15.57;100.00;98267.19;4387882;32;20124;-73
2022/05/21 07:08:45;;;;;;;0.88;0.88;;;;;;;15.93;100.00;98286.31;4386300;32;20077;-73
2022/05/21 07:11:13;;;;;;;5.18;0.85;;;;;;;15.48;100.00;98258.97;4387333;32;20871;-73
2022/05/21 07:13:39;;;;;;;6.30;0.75;;;;;;;15.72;100.00;98298.69;4388121;32;20165;-71
2022/05/21 07:16:06;;;;;;;9.43;0.77;;;;;;;15.64;100.00;98293.97;4392242;32;20078;-74
2022/05/21 07:18:32;;;;;;;6.57;0.82;;;;;;;16.00;100.00;98295.97;4387530;32;20070;-74
2022/05/21 07:20:59;;;;;;;3.08;0.85;;;;;;;15.72;100.00;98287.81;4383760;32;20027;-74
2022/05/21 07:23:28;;;;;;;2.53;0.80;;;;;;;15.74;100.00;98304.59;4387782;32;20065;-74
2022/05/21 07:25:55;;;;;;;1.75;0.68;;;;;;;15.44;100.00;98290.50;4388038;32;20043;-73
2022/05/21 07:28:21;;;;;;;4.60;0.80;;;;;;;15.75;100.00;98309.72;4386860;32;20053;-74
2022/05/21 07:30:49;;;;;;;1.12;0.65;;;;;;;15.73;100.00;98319.25;4386217;32;20081;-74
2022/05/21 07:33:18;;;;;;;2.92;0.65;;;;;;;15.77;100.00;98340.13;4384106;32;20044;-74
2022/05/21 07:35:45;;;;;;;5.07;0.82;;;;;;;15.70;100.00;98325.28;4371156;32;20049;-74
2022/05/21 07:38:13;;;;;;;0.80;0.80;;;;;;;15.64;100.00;98370.72;4370273;32;20042;-74
2022/05/21 07:40:42;;;;;;;5.37;1.00;;;;;;;15.72;100.00;98366.53;4380405;32;20060;-73
2022/05/21 07:43:21;;;;;;;0.80;0.80;;;;;;;15.83;100.00;98361.72;4386286;32;20032;-75
2022/05/21 07:45:49;;;;;;;4.22;0.88;;;;;;;15.80;100.00;98347.66;4388198;32;20043;-74
2022/05/21 07:48:18;;;;;;;0.93;0.77;;;;;;;15.61;100.00;98366.69;4384961;32;20065;-74
2022/05/21 07:50:55;;;;;;;2.80;0.95;;;;;;;15.26;100.00;98322.81;4385987;32;20076;-73
2022/05/21 07:53:25;;;;;;;1.42;1.33;;;;;;;15.49;100.00;98352.81;4386392;32;20061;-74
2022/05/21 07:55:53;;;;;;;2.55;0.90;;;;;;;15.73;100.00;98360.81;4386686;32;20445;-74
2022/05/21 07:58:21;;;;;;;0.85;0.60;;;;;;;15.86;100.00;98356.53;4383975;32;20508;-73
2022/05/21 08:00:56;;;;;;;3.85;0.70;;;;;;;15.51;100.00;98353.31;4386523;32;20055;-73
2022/05/21 08:03:24;;;;;;;5.18;0.90;;;;;;;15.75;100.00;98410.16;4386175;32;20068;-73
2022/05/21 08:05:50;;;;;;;5.43;1.00;;;;;;;15.85;100.00;98386.69;4385070;32;20043;-73
2022/05/21 08:08:17;;;;;;;0.60;0.60;;;;;;;15.97;100.00;98357.94;4386415;32;20076;-73
2022/05/21 08:10:45;;;;;;;4.25;1.08;;;;;;;16.08;100.00;98352.28;4386460;32;20051;-73
2022/05/21 08:13:13;;;;;;;4.32;1.10;;;;;;;16.42;100.00;98348.31;4386898;32;20047;-73
2022/05/21 08:15:40;;;;;;;0.68;0.68;;;;;;;16.38;100.00;98333.75;4387800;32;20039;-74
2022/05/21 08:18:07;;;;;;;0.98;0.80;;;;;;;16.56;100.00;98414.34;4385309;32;20035;-74
2022/05/21 08:20:35;;;;;;;1.62;0.80;;;;;;;16.10;100.00;98404.41;4387303;32;20064;-74
2022/05/21 08:28:34;;;;;;;2.20;0.93;;;;;;;16.26;100.00;98378.53;4388723;32;20059;-74
2022/05/21 08:31:03;;;;;;;4.90;0.75;;;;;;;16.26;100.00;98373.09;4393943;32;20035;-73
2022/05/21 08:33:29;;;;;;;1.75;1.48;;;;;;;16.32;100.00;98374.62;4397940;32;20069;-73
2022/05/21 08:35:55;;;;;;;3.47;1.08;;;;;;;15.94;100.00;98401.97;4398753;32;20082;-74
2022/05/21 08:38:22;;;;;;;1.10;0.90;;;;;;;16.18;100.00;98362.97;4400319;32;20084;-75
2022/05/21 08:40:56;;;;;;;6.95;1.23;;;;;;;16.18;100.00;98357.53;4401065;32;20030;-74
2022/05/21 08:43:44;;;;;;;5.57;0.88;;;;;;;16.27;100.00;98399.13;4383675;32;20043;-75
2022/05/21 08:46:36;;;;;;;0.80;0.80;;;;;;;16.56;100.00;98395.31;4378332;32;20061;-74
2022/05/21 08:49:07;;;;;;;0.82;0.82;;;;;;;16.62;100.00;98412.31;4393626;32;20498;-73
2022/05/21 08:51:44;;;;;;;3.62;1.23;;;;;;;16.51;100.00;98417.13;4385810;32;20372;-74
2022/05/21 08:54:12;;;;;;;4.22;1.33;;;;;;;16.69;100.00;98405.34;4386651;32;20442;-74
2022/05/21 08:56:39;;;;;;;6.10;1.87;;;;;;;16.37;100.00;98337.56;4384875;32;20425;-74
2022/05/21 08:59:08;;;;;;;2.92;0.62;;;;;;;16.52;100.00;98364.41;4388012;32;20379;-73
2022/05/21 09:01:40;;;;;;;1.65;0.95;;;;;;;16.76;100.00;98409.56;4393034;32;20061;-74
2022/05/21 09:04:08;;;;;;;0.70;0.70;;;;;;;16.84;100.00;98389.81;4401021;32;20039;-73
2022/05/21 09:06:41;;;;;;;4.65;1.00;;;;;;;16.61;100.00;98407.97;4391479;32;20035;-74
2022/05/21 09:09:08;;;;;;;;;;;;;;;16.34;100.00;98475.63;4387741;32;20066;-73
2022/05/21 09:11:44;;;;;;;0.70;0.70;;;;;;;16.57;100.00;98445.03;4374664;32;19954;-73
2022/05/21 09:14:32;;;;;;;2.03;0.90;;;;;;;16.48;100.00;98415.03;4389138;32;20122;-73
2022/05/21 09:17:00;;;;;;;0.50;0.50;;;;;;;16.66;100.00;98426.91;4385922;32;20372;-73
2022/05/21 09:19:34;;;;;;;4.15;2.28;;;;;;;16.31;100.00;98427.31;4383081;32;20051;-73
2022/05/21 09:22:01;;;;;;;;;;;;;;;16.19;100.00;98418.88;4367931;32;20043;-74
2022/05/21 09:24:41;;;;;;;2.05;1.00;;;;;;;16.70;100.00;98422.44;4371028;32;19956;-73
2022/05/21 09:27:33;;;;;;;7.50;0.70;;;;;;;16.92;100.00;98467.97;4370504;32;20362;-73
2022/05/21 09:30:20;;;;;;;0.60;0.60;;;;;;;17.11;100.00;98405.25;4382710;32;20052;-73
2022/05/21 09:32:52;;;;;;;0.85;0.60;;;;;;;16.66;100.00;98422.25;4374102;32;20116;-72
2022/05/21 09:35:21;;;;;;;8.23;0.75;;;;;;;16.61;100.00;98419.66;4398778;32;20462;-73
2022/05/21 09:37:48;;;;;;;5.50;0.60;;;;;;;16.64;100.00;98419.06;4401195;32;20059;-73
2022/05/21 09:40:34;;;;;;;2.17;1.25;;;;;;;16.53;100.00;98429.31;4392636;32;20035;-73
2022/05/21 09:46:15;;;;;;;7.32;1.33;;;;;;;16.29;100.00;98418.69;4398369;32;20473;-75
2022/05/21 09:48:42;;;;;;;4.25;0.90;;;;;;;16.44;100.00;98435.78;4391415;32;20098;-72
2022/05/21 09:51:31;;;;;;;2.37;0.85;;;;;;;15.98;100.00;98408.37;4386025;32;20061;-72
2022/05/21 09:53:59;;;;;;;3.62;0.70;;;;;;;16.51;100.00;98438.87;4382742;32;20174;-72
2022/05/21 09:56:33;;;;;;;1.42;0.90;;;;;;;16.12;100.00;98472.78;4385634;32;20053;-71
2022/05/21 09:59:15;;;;;;;2.80;0.60;;;;;;;16.29;100.00;98478.44;4385932;32;20043;-72
2022/05/21 10:01:47;;;;;;;0.70;0.70;;;;;;;16.27;100.00;98441.81;4376460;32;20081;-72
2022/05/21 10:04:22;;;;;;;1.35;0.90;;;;;;;16.33;100.00;98441.41;4388269;32;20047;-72
2022/05/21 10:07:07;;;;;;;6.40;1.05;;;;;;;16.65;100.00;98512.25;4392856;32;20047;-72
2022/05/21 10:12:32;;;;;;;2.67;0.73;;;;;;;16.82;100.00;98465.44;4383143;32;20047;-73
2022/05/21 10:15:22;;;;;;;0.90;0.60;;;;;;;17.05;100.00;98510.62;4385851;32;20174;-73
2022/05/21 10:17:59;;;;;;;6.78;3.28;;;;;;;17.15;100.00;98459.84;4380114;32;20376;-73
2022/05/21 10:20:37;;;;;;;0.90;0.90;;;;;;;16.98;100.00;98498.56;4389344;32;20038;-73
2022/05/21 10:23:29;;;;;;;0.50;0.50;;;;;;;16.99;100.00;98468.34;4389474;32;20104;-72
2022/05/21 10:26:21;;;;;;;2.50;0.90;;;;;;;17.18;100.00;98513.63;4387238;32;20069;-73
2022/05/21 10:29:25;;;;;;;0.62;0.62;;;;;;;17.06;100.00;98446.97;4383648;32;20039;-73
2022/05/21 10:32:05;;;;;;;0.70;0.70;;;;;;;17.09;100.00;98515.47;4391305;32;20072;-73
2022/05/21 10:34:47;;;;;;;1.55;1.17;;;;;;;17.13;100.00;98489.25;4391607;32;20038;-72
2022/05/21 10:37:21;;;;;;;5.55;1.00;;;;;;;17.15;100.00;98506.06;4395922;32;20047;-72
2022/05/21 10:40:25;;;;;;;2.72;1.10;;;;;;;17.25;100.00;98492.25;4393492;32;20061;-74
2022/05/21 10:43:06;;;;;;;4.28;1.00;;;;;;;16.95;100.00;98489.09;4393148;32;20036;-72
2022/05/21 10:45:59;;;;;;;1.92;0.75;;;;;;;16.82;100.00;98481.75;4387254;32;20050;-73
2022/05/21 10:48:35;;;;;;;1.23;1.10;;;;;;;16.48;100.00;98480.25;4394492;32;20043;-73
2022/05/21 10:51:37;;;;;;;1.08;1.08;;;;;;;16.82;100.00;98476.31;4391625;32;20170;-72
2022/05/21 10:54:22;;;;;;;;;;;;;;;16.82;100.00;98557.88;4391595;32;20101;-73
2022/05/21 10:57:13;;;;;;;11.45;0.90;;;;;;;16.84;100.00;98548.28;4392278;32;19938;-72
2022/05/21 11:00:01;;;;;;;0.98;0.98;;;;;;;16.86;100.00;98523.53;4385836;32;20035;-74
2022/05/21 11:02:33;;;;;;;1.25;0.55;;;;;;;16.94;100.00;98558.19;4392470;32;20065;-73
2022/05/21 11:05:15;;;;;;;0.95;0.93;;;;;;;16.71;100.00;98539.03;4391500;32;20055;-73
2022/05/21 11:07:55;;;;;;;0.75;0.65;;;;;;;16.47;100.00;98505.81;4388124;32;20043;-73
2022/05/21 11:10:43;;;;;;;2.33;0.80;;;;;;;16.47;100.00;98552.00;4394674;32;20043;-71
2022/05/21 11:13:40;;;;;;;1.27;0.60;;;;;;;16.38;100.00;98595.34;4391501;32;20060;-73
2022/05/21 11:16:22;;;;;;;0.80;0.80;;;;;;;16.17;100.00;98611.19;4391097;32;20052;-71
2022/05/21 11:19:35;;;;;;;3.47;0.90;;;;;;;16.33;100.00;98579.94;4400247;32;20456;-72
2022/05/21 11:22:24;;;;;;;1.25;0.77;;;;;;;17.08;100.00;98562.81;4389946;32;20085;-71
2022/05/21 11:25:01;;;;;;;1.25;0.80;;;;;;;16.93;100.00;98534.84;4395417;32;20030;-71
2022/05/21 11:27:50;;;;;;;2.70;0.70;;;;;;;16.90;100.00;98573.50;4390353;32;20054;-71
2022/05/21 11:30:26;;;;;;;4.78;0.95;;;;;;;16.87;100.00;98602.09;4391908;32;20073;-71
2022/05/21 11:38:43;;;;;;;3.12;0.55;;;;;;;16.74;100.00;98581.13;4390651;32;20054;-71
2022/05/21 11:41:29;;;;;;;5.00;0.82;;;;;;;16.81;100.00;98651.41;4392639;32;20031;-72
2022/05/21 11:44:55;;;;;;;1.23;0.88;;;;;;;16.54;100.00;98625.78;4387226;32;20463;-72
2022/05/21 11:46:49;;;;;;;6.93;1.30;;;;;;;16.49;100.00;98639.47;4393781;32;20065;-71
2022/05/21 11:49:44;;;;;;;0.75;0.75;;;;;;;16.10;100.00;98624.38;4393539;32;20035;-72
2022/05/21 11:52:26;;;;;;;4.53;0.80;;;;;;;15.96;100.00;98627.81;4387293;32;20061;-70
2022/05/21 11:54:53;;;;;;;2.60;0.95;;;;;;;15.72;100.00;98591.78;4387244;32;20046;-71
2022/05/21 11:57:44;;;;;;;6.32;1.02;;;;;;;16.00;100.00;98616.38;4393953;32;20047;-71
2022/05/21 12:00:24;;;;;;;2.20;0.70;;;;;;;15.83;100.00;98600.59;4402356;32;20072;-72
2022/05/21 12:02:53;;;;;;;1.25;0.70;;;;;;;15.98;100.00;98639.19;4401347;32;20068;-72
2022/05/21 12:05:40;;;;;;;1.50;0.80;;;;;;;16.04;100.00;98677.13;4394662;32;20042;-72
2022/05/21 12:08:36;;;;;;;2.00;0.80;;;;;;;16.30;100.00;98651.16;4392326;32;20030;-72
2022/05/21 12:11:22;;;;;;;2.90;1.15;;;;;;;16.47;100.00;98641.69;4391525;32;20056;-71
2022/05/21 12:14:18;;;;;;;3.95;0.93;;;;;;;16.57;100.00;98625.19;4391833;32;20068;-71
2022/05/21 12:16:49;;;;;;;1.10;0.73;;;;;;;16.75;100.00;98679.78;4391313;32;20085;-71
2022/05/21 12:19:58;;;;;;;6.28;0.77;;;;;;;16.83;100.00;98638.31;4394603;32;20076;-73
2022/05/21 12:22:41;;;;;;;5.93;0.95;;;;;;;16.91;100.00;98650.44;4390835;32;20112;-72
2022/05/21 12:25:13;;;;;;;13.52;0.90;;;;;;;17.09;100.00;98614.19;4386172;32;20031;-71